Latest Weather Observations for Tewantin

IDQ60801

Issued at 7:32 pm EST Monday 23 October 2017 (issued every 30 minutes, with the page automatically refreshed every 10 minutes)

About weather observations | Map of weather stations | Latest weather observations for QLD | Other Formats
Station Details ID: 040908 Name: TEWANTIN RSL PARK Lat: -26.39 Lon: 153.04 Height: 6.4 m
Data from the previous 72 hours. | See also: Recent months at Tewantin
Date/Time
EST
Temp
°C
App
Temp
°C
Dew
Point
°C
Rel
Hum
%
Delta-T
°C
Wind Press
QNH
hPa
Press
MSL
hPa
Rain since
9am
mm
Dir  Spd
km/h
Gust
km/h
Spd
kts
Gust
kts
23/07:30pm 17.1 18.0 16.6 97 0.3 SSW 7 11 4 6 1017.6 1017.6 2.2
23/07:00pm 16.8 18.5 16.2 96 0.4 NW 2 7 1 4 1017.0 1017.0 2.2
23/06:30pm 17.2 18.7 16.7 97 0.3 NNW 4 7 2 4 1017.1 1017.1 2.2
23/06:00pm 17.8 18.7 17.5 98 0.2 NW 9 15 5 8 1017.1 1017.1 2.2
23/05:30pm 18.3 19.7 17.7 96 0.4 NW 7 9 4 5 1016.8 1016.8 2.2
23/05:00pm 18.7 20.5 17.5 93 0.7 SW 4 7 2 4 1016.2 1016.2 2.2
23/04:30pm 18.7 20.5 17.4 92 0.8 SW 4 7 2 4 1015.9 1015.9 2.2
23/04:00pm 18.7 19.8 17.2 91 0.9 W 7 11 4 6 1015.9 1015.9 2.0
23/03:30pm 19.3 20.7 17.4 89 1.2 WSW 6 9 3 5 1015.4 1015.4 1.8
23/03:00pm 19.4 20.4 16.4 83 1.8 W 6 13 3 7 1014.9 1014.9 1.8
23/02:30pm 18.5 18.1 16.1 86 1.4 ENE 13 19 7 10 1013.6 1013.6 1.8
23/02:00pm 19.2 19.8 16.8 86 1.4 S 9 17 5 9 1015.2 1015.2 0.6
23/01:30pm 19.9 19.2 15.5 76 2.6 SSW 13 17 7 9 1015.5 1015.5 0.0
23/01:00pm 21.2 20.8 15.3 69 3.5 ENE 11 20 6 11 1015.0 1015.0 0.0
23/12:30pm 21.2 20.4 15.1 68 3.6 NE 13 19 7 10 1015.5 1015.5 0.0
23/12:00pm 22.9 22.4 16.0 65 4.2 NE 13 17 7 9 1015.3 1015.3 0.0
23/11:30am 21.8 20.4 13.4 59 4.8 E 13 19 7 10 1015.6 1015.6 0.0
23/11:00am 21.1 20.5 14.5 66 3.9 ESE 11 17 6 9 1015.9 1015.9 0.0
23/10:30am 20.6 18.9 13.6 64 4.0 ESE 15 20 8 11 1016.0 1016.0 0.0
23/10:00am 19.9 18.0 13.1 65 3.9 ESE 15 20 8 11 1016.4 1016.4 0.0
23/09:30am 19.9 18.6 13.6 67 3.6 SE 13 20 7 11 1016.8 1016.8 0.0
23/09:00am 19.6 19.0 15.7 78 2.3 SE 13 22 7 12 1016.4 1016.4 0.0
23/08:30am 19.7 18.8 14.9 74 2.8 SSE 13 19 7 10 1015.9 1015.9 0.0
23/08:00am 20.2 19.6 15.6 75 2.7 S 13 20 7 11 1015.4 1015.4 0.0
23/07:30am 20.6 21.4 16.4 77 2.5 S 7 9 4 5 1015.2 1015.2 0.0
23/07:00am 19.3 19.9 15.4 78 2.3 SSE 6 9 3 5 1015.1 1015.1 0.0
23/06:30am 18.6 20.1 15.7 83 1.7 SW 2 7 1 4 1014.6 1014.6 0.0
23/06:00am 16.6 18.1 15.6 94 0.6 WSW 2 6 1 3 1014.3 1014.3 0.0
23/05:30am 15.7 17.1 15.5 99 0.1 N 2 9 1 5 1014.1 1014.1 0.0
23/05:00am 15.6 17.3 15.3 98 0.2 CALM 0 7 0 4 1013.8 1013.8 0.0
23/04:30am 15.9 17.0 15.6 98 0.2 SW 4 7 2 4 1013.6 1013.6 0.0
23/04:00am 15.8 16.4 15.3 97 0.3 SW 6 9 3 5 1013.2 1013.2 0.0
23/03:30am 16.2 17.3 15.6 96 0.3 WNW 4 7 2 4 1012.9 1012.9 0.0
23/03:00am 16.5 17.9 15.5 94 0.6 NW 2 7 1 4 1013.1 1013.1 0.0
23/02:30am 17.2 18.6 15.4 89 1.1 SW 2 6 1 3 1013.0 1013.0 0.0
23/02:00am 17.6 18.2 15.4 87 1.3 SW 6 7 3 4 1013.1 1013.1 0.0
23/01:30am 18.0 18.6 15.8 87 1.3 SSW 7 9 4 5 1013.3 1013.3 0.0
23/01:00am 18.2 18.9 16.2 88 1.2 SW 7 9 4 5 1013.6 1013.6 0.0
23/12:30am 18.6 20.5 15.7 83 1.7 CALM 0 0 0 0 1013.8 1013.8 0.0
23/12:00am 18.8 19.6 15.9 83 1.7 SSW 6 9 3 5 1014.0 1014.0 0.0
 
Date/Time
EST
Temp
°C
App
Temp
°C
Dew
Point
°C
Rel
Hum
%
Delta-T
°C
Wind Press
QNH
hPa
Press
MSL
hPa
Rain since
9am
mm
Dir  Spd
km/h
Gust
km/h
Spd
kts
Gust
kts
22/11:30pm 18.8 19.7 16.0 84 1.7 SSW 6 9 3 5 1014.1 1014.1 0.0
22/11:00pm 18.9 19.8 16.0 83 1.7 WSW 6 7 3 4 1014.3 1014.3 0.0
22/10:30pm 19.4 20.3 16.2 82 1.9 SSW 6 9 3 5 1014.2 1014.2 0.0
22/10:00pm 19.9 20.6 16.0 78 2.3 SSW 7 9 4 5 1014.3 1014.3 0.0
22/09:30pm 20.5 21.2 15.5 73 3.0 SSW 6 7 3 4 1014.2 1014.2 0.0
22/09:00pm 20.8 21.1 14.9 69 3.5 SE 7 11 4 6 1014.1 1014.1 0.0
22/08:30pm 21.0 21.0 15.3 70 3.4 ESE 9 15 5 8 1014.0 1014.0 0.0
22/08:00pm 20.8 20.8 15.1 70 3.4 ESE 9 13 5 7 1013.7 1013.7 0.0
22/07:30pm 20.6 20.5 14.9 70 3.3 SE 9 15 5 8 1013.2 1013.2 0.0
22/07:00pm 20.7 20.5 14.8 69 3.5 SE 9 13 5 7 1012.9 1012.9 0.0
22/06:30pm 20.7 20.5 14.8 69 3.5 SE 9 15 5 8 1012.5 1012.5 0.0
22/06:00pm 20.8 20.7 14.9 69 3.5 ESE 9 17 5 9 1012.1 1012.1 0.0
22/05:30pm 21.2 19.7 14.1 64 4.1 ESE 15 20 8 11 1011.8 1011.8 0.0
22/05:00pm 21.3 20.3 14.7 66 3.9 ESE 13 20 7 11 1011.5 1011.5 0.0
22/04:30pm 21.3 19.9 14.5 65 4.0 E 15 20 8 11 1011.3 1011.3 0.0
22/04:00pm 21.6 20.4 15.0 66 3.9 E 15 26 8 14 1011.2 1011.2 0.0
22/03:30pm 21.4 20.2 14.1 63 4.2 ESE 13 24 7 13 1010.9 1010.9 0.0
22/03:00pm 21.9 20.1 14.5 63 4.3 ESE 17 22 9 12 1010.8 1010.8 0.0
22/02:30pm 21.9 20.5 14.5 63 4.3 ESE 15 26 8 14 1011.0 1011.0 0.0
22/02:00pm 21.6 20.0 13.8 61 4.5 ESE 15 22 8 12 1011.2 1011.2 0.0
22/01:30pm 21.6 19.5 13.5 60 4.7 ESE 17 22 9 12 1011.4 1011.4 0.0
22/01:00pm 22.0 20.0 13.9 60 4.7 ESE 17 24 9 13 1011.6 1011.6 0.0
22/12:30pm 21.9 19.2 13.0 57 5.1 ESE 19 28 10 15 1011.8 1011.8 0.0
22/12:00pm 22.4 19.7 12.9 55 5.4 ESE 19 24 10 13 1012.3 1012.3 0.0
22/11:30am 22.1 19.9 13.2 57 5.1 ESE 17 24 9 13 1012.3 1012.3 0.0
22/11:00am 22.2 20.5 13.5 57 5.0 SE 15 28 8 15 1012.6 1012.6 0.0
22/10:30am 21.8 19.6 13.4 59 4.8 ESE 17 24 9 13 1012.7 1012.7 0.0
22/10:00am 22.0 21.0 14.6 63 4.4 SE 13 19 7 10 1013.2 1013.2 0.0
22/09:30am 21.6 19.5 13.5 60 4.7 S 17 24 9 13 1013.4 1013.4 0.0
22/09:00am 21.2 19.1 13.6 62 4.4 SSE 17 24 9 13 1013.5 1013.5 18.2
22/08:30am 20.3 17.9 12.5 61 4.4 SSE 17 24 9 13 1013.5 1013.5 18.2
22/08:00am 19.7 18.0 12.5 63 4.0 S 13 20 7 11 1013.4 1013.4 18.2
22/07:30am 19.2 18.3 13.8 71 3.1 S 11 19 6 10 1013.3 1013.3 18.2
22/07:00am 17.8 17.2 13.5 76 2.4 S 9 17 5 9 1013.0 1013.0 18.2
22/06:30am 16.5 16.7 14.2 86 1.3 S 6 9 3 5 1012.9 1012.9 18.2
22/06:00am 14.9 15.6 14.6 98 0.2 SSW 4 7 2 4 1012.6 1012.6 18.2
22/05:30am 13.5 14.5 13.3 99 0.1 CALM 0 0 0 0 1012.4 1012.4 18.2
22/05:00am 13.6 14.3 13.4 99 0.1 W 2 6 1 3 1012.3 1012.3 18.2
22/04:30am 13.7 13.7 13.5 99 0.1 W 6 7 3 4 1012.2 1012.2 18.2
22/04:00am 13.8 14.9 13.6 99 0.1 CALM 0 0 0 0 1012.1 1012.1 18.2
22/03:30am 14.2 15.5 14.0 99 0.1 CALM 0 0 0 0 1012.1 1012.1 18.2
22/03:00am 14.1 15.3 13.9 99 0.1 CALM 0 6 0 3 1012.2 1012.2 18.2
22/02:30am 14.4 15.7 14.2 99 0.1 CALM 0 0 0 0 1012.2 1012.2 18.2
22/02:00am 14.6 16.0 14.4 99 0.1 CALM 0 0 0 0 1012.5 1012.5 18.2
22/01:30am 15.0 16.6 14.8 99 0.1 CALM 0 0 0 0 1012.9 1012.9 18.2
22/01:00am 15.3 16.5 15.0 98 0.2 SSW 2 7 1 4 1013.3 1013.3 18.2
22/12:30am 15.6 16.2 15.3 98 0.2 SSW 6 7 3 4 1013.6 1013.6 18.2
22/12:00am 15.9 16.6 15.6 98 0.2 SSW 6 9 3 5 1013.9 1013.9 18.2
 
Date/Time
EST
Temp
°C
App
Temp
°C
Dew
Point
°C
Rel
Hum
%
Delta-T
°C
Wind Press
QNH
hPa
Press
MSL
hPa
Rain since
9am
mm
Dir  Spd
km/h
Gust
km/h
Spd
kts
Gust
kts
21/11:30pm 15.9 16.5 15.7 99 0.1 S 7 13 4 7 1014.0 1014.0 18.2
21/11:00pm 16.1 16.4 15.9 99 0.1 SSW 9 13 5 7 1014.4 1014.4 18.2
21/10:30pm 16.0 15.5 15.8 99 0.1 S 13 22 7 12 1014.4 1014.4 18.2
21/10:00pm 16.0 15.5 15.8 99 0.1 S 13 19 7 10 1014.3 1014.3 18.0
21/09:30pm 16.0 16.2 15.8 99 0.1 SSW 9 17 5 9 1014.9 1014.9 18.0
21/09:00pm 15.9 16.1 15.7 99 0.1 S 9 15 5 8 1015.0 1015.0 18.0
21/08:30pm 15.9 16.5 15.7 99 0.1 S 7 11 4 6 1014.7 1014.7 17.8
21/08:00pm 16.0 16.6 15.8 99 0.1 SSE 7 13 4 7 1014.6 1014.6 17.6
21/07:30pm 16.0 15.5 15.8 99 0.1 S 13 17 7 9 1014.9 1014.9 17.0
21/07:00pm 15.9 16.1 15.7 99 0.1 SSE 9 22 5 12 1014.6 1014.6 15.6
21/06:30pm 16.1 15.2 15.9 99 0.1 S 15 22 8 12 1014.7 1014.7 13.6
21/06:00pm 16.1 14.5 15.9 99 0.1 S 19 30 10 16 1014.4 1014.4 12.4
21/05:30pm 16.3 14.5 16.1 99 0.1 S 20 32 11 17 1014.1 1014.1 10.6
21/05:00pm 16.8 15.2 16.6 99 0.1 SSE 20 32 11 17 1013.7 1013.7 9.4
21/04:30pm 17.0 16.1 16.8 99 0.1 SSE 17 28 9 15 1013.5 1013.5 8.0
21/04:00pm 17.4 16.6 17.2 99 0.1 SSE 17 35 9 19 1013.3 1013.3 6.4
21/03:30pm 17.9 17.4 17.7 99 0.1 S 17 32 9 17 1013.1 1013.1 4.0
21/03:00pm 18.5 18.2 18.3 99 0.1 SSE 17 24 9 13 1013.0 1013.0 1.8
21/02:30pm 19.7 21.0 19.2 97 0.3 SSE 11 20 6 11 1012.9 1012.9 1.8
21/02:00pm 19.9 21.7 19.6 98 0.2 SE 9 17 5 9 1013.2 1013.2 1.8
21/01:30pm 19.9 21.6 19.4 97 0.3 ESE 9 15 5 8 1013.4 1013.4 1.6
21/01:00pm 20.8 23.3 19.8 94 0.6 SSE 6 9 3 5 1013.8 1013.8 1.2
21/12:30pm 20.6 22.7 18.9 90 1.1 S 6 9 3 5 1014.1 1014.1 1.0
21/12:00pm 20.9 22.9 18.7 87 1.4 SSW 6 9 3 5 1014.7 1014.7 1.0
21/11:30am 21.2 23.6 18.8 86 1.5 SW 4 7 2 4 1014.8 1014.8 1.0
21/11:00am 21.0 23.0 19.1 89 1.2 SW 7 11 4 6 1015.2 1015.2 1.0
21/10:30am 20.9 23.0 19.0 89 1.2 SW 6 9 3 5 1015.3 1015.3 1.0
21/10:00am 20.9 23.7 17.9 83 1.9 CALM 0 0 0 0 1015.0 1015.0 0.8
21/09:30am 20.9 22.3 17.3 80 2.2 NW 6 9 3 5 1015.3 1015.3 0.0
21/09:00am 21.6 22.0 16.3 72 3.2 NW 9 15 5 8 1015.5 1015.5 0.0
21/08:30am 21.6 22.6 16.3 72 3.2 WNW 6 9 3 5 1015.7 1015.7 0.0
21/08:00am 21.2 22.9 17.2 78 2.4 WSW 4 9 2 5 1015.9 1015.9 0.0
21/07:30am 19.8 20.8 16.4 81 2.0 WNW 6 7 3 4 1015.9 1015.9 0.0
21/07:00am 19.2 21.1 16.6 85 1.6 W 2 6 1 3 1015.9 1015.9 0.0
21/06:30am 18.4 20.2 16.4 88 1.2 WSW 2 7 1 4 1015.7 1015.7 0.0
21/06:00am 17.9 20.1 16.6 92 0.8 CALM 0 0 0 0 1015.6 1015.6 0.0
21/05:30am 17.5 19.7 16.4 93 0.7 CALM 0 0 0 0 1015.4 1015.4 0.0
21/05:00am 17.2 19.4 16.4 95 0.5 CALM 0 0 0 0 1015.2 1015.2 0.0
21/04:30am 17.0 18.6 16.0 94 0.6 WNW 2 7 1 4 1015.0 1015.0 0.0
21/04:00am 17.0 18.6 16.0 94 0.6 W 2 6 1 3 1014.9 1014.9 0.0
21/03:30am 16.9 17.8 16.1 95 0.5 WNW 6 9 3 5 1014.9 1014.9 0.0
21/03:00am 16.7 18.7 16.1 96 0.4 CALM 0 2 0 1 1014.9 1014.9 0.0
21/02:30am 16.7 18.5 15.6 93 0.6 CALM 0 0 0 0 1015.0 1015.0 0.0
21/02:00am 16.9 18.8 15.8 93 0.6 CALM 0 0 0 0 1015.1 1015.1 0.0
21/01:30am 17.3 19.3 16.0 92 0.8 CALM 0 0 0 0 1015.7 1015.7 0.0
21/01:00am 17.5 19.4 15.8 90 1.0 CALM 0 0 0 0 1016.0 1016.0 0.0
21/12:30am 17.7 19.9 16.4 92 0.8 CALM 0 0 0 0 1016.3 1016.3 0.0
21/12:00am 17.7 19.7 15.9 89 1.1 CALM 0 0 0 0 1016.8 1016.8 0.0
 
Date/Time
EST
Temp
°C
App
Temp
°C
Dew
Point
°C
Rel
Hum
%
Delta-T
°C
Wind Press
QNH
hPa
Press
MSL
hPa
Rain since
9am
mm
Dir  Spd
km/h
Gust
km/h
Spd
kts
Gust
kts
20/11:30pm 18.0 20.1 16.3 90 1.0 CALM 0 0 0 0 1017.2 1017.2 0.0
20/11:00pm 18.1 20.1 15.9 87 1.3 CALM 0 0 0 0 1017.4 1017.4 0.0
20/10:30pm 18.2 20.1 15.8 86 1.4 CALM 0 0 0 0 1017.7 1017.7 0.0
20/10:00pm 18.4 19.9 15.6 84 1.6 WNW 2 7 1 4 1017.9 1017.9 0.0
20/09:30pm 18.7 19.5 15.9 84 1.7 WNW 6 7 3 4 1018.0 1018.0 0.0
20/09:00pm 19.2 20.0 15.9 81 2.0 WNW 6 9 3 5 1018.1 1018.1 0.0
20/08:30pm 19.8 21.8 16.1 79 2.2 CALM 0 0 0 0 1018.1 1018.1 0.0
20/08:00pm 20.5 21.3 15.9 75 2.7 NW 6 7 3 4 1018.1 1018.1 0.0

Other Formats:

Comma delimited format used in spreadsheet applications
http://www.bom.gov.au/fwo/IDQ60801/IDQ60801.94570.axf

JavaScript Object Notation format (JSON) in row-major order
http://www.bom.gov.au/fwo/IDQ60801/IDQ60801.94570.json